sensor_id;sensor_type;location;lat;lon;timestamp;P1;durP1;ratioP1;P2;durP2;ratioP2
20095;SDS011;10207;50.942;6.900;2023-01-23T00:00:48;35.60;;;16.93;;
20095;SDS011;10207;50.942;6.900;2023-01-23T00:03:14;31.97;;;16.43;;
20095;SDS011;10207;50.942;6.900;2023-01-23T00:05:40;31.27;;;15.53;;
20095;SDS011;10207;50.942;6.900;2023-01-23T00:08:06;30.20;;;15.17;;
20095;SDS011;10207;50.942;6.900;2023-01-23T00:10:32;30.43;;;16.80;;
20095;SDS011;10207;50.942;6.900;2023-01-23T00:12:58;31.23;;;15.17;;
20095;SDS011;10207;50.942;6.900;2023-01-23T00:15:24;31.37;;;16.43;;
20095;SDS011;10207;50.942;6.900;2023-01-23T00:17:52;28.17;;;15.23;;
20095;SDS011;10207;50.942;6.900;2023-01-23T00:20:18;28.27;;;14.40;;
20095;SDS011;10207;50.942;6.900;2023-01-23T00:22:44;28.10;;;15.20;;
20095;SDS011;10207;50.942;6.900;2023-01-23T00:25:10;29.70;;;16.20;;
20095;SDS011;10207;50.942;6.900;2023-01-23T00:27:36;31.27;;;16.23;;
20095;SDS011;10207;50.942;6.900;2023-01-23T00:30:02;32.47;;;16.87;;
20095;SDS011;10207;50.942;6.900;2023-01-23T00:32:29;29.67;;;16.17;;
20095;SDS011;10207;50.942;6.900;2023-01-23T00:34:54;30.43;;;16.70;;
20095;SDS011;10207;50.942;6.900;2023-01-23T00:37:20;35.30;;;15.30;;
20095;SDS011;10207;50.942;6.900;2023-01-23T00:39:48;28.93;;;16.27;;
20095;SDS011;10207;50.942;6.900;2023-01-23T00:42:16;28.27;;;14.57;;
20095;SDS011;10207;50.942;6.900;2023-01-23T00:44:41;28.83;;;14.63;;
20095;SDS011;10207;50.942;6.900;2023-01-23T00:47:07;31.30;;;15.77;;
20095;SDS011;10207;50.942;6.900;2023-01-23T00:49:33;32.43;;;16.53;;
20095;SDS011;10207;50.942;6.900;2023-01-23T00:51:59;29.03;;;15.10;;
20095;SDS011;10207;50.942;6.900;2023-01-23T00:54:26;25.10;;;14.17;;
20095;SDS011;10207;50.942;6.900;2023-01-23T00:56:52;22.10;;;11.07;;
20095;SDS011;10207;50.942;6.900;2023-01-23T00:59:21;32.90;;;16.27;;
20095;SDS011;10207;50.942;6.900;2023-01-23T01:01:47;27.77;;;12.77;;
20095;SDS011;10207;50.942;6.900;2023-01-23T01:04:14;29.40;;;16.67;;
20095;SDS011;10207;50.942;6.900;2023-01-23T01:06:40;29.57;;;15.27;;
20095;SDS011;10207;50.942;6.900;2023-01-23T01:09:06;25.40;;;12.37;;
20095;SDS011;10207;50.942;6.900;2023-01-23T01:11:32;26.90;;;13.83;;
20095;SDS011;10207;50.942;6.900;2023-01-23T01:13:58;26.57;;;14.80;;
20095;SDS011;10207;50.942;6.900;2023-01-23T01:16:25;25.60;;;13.47;;
20095;SDS011;10207;50.942;6.900;2023-01-23T01:18:51;27.47;;;13.50;;
20095;SDS011;10207;50.942;6.900;2023-01-23T01:21:18;26.00;;;14.67;;
20095;SDS011;10207;50.942;6.900;2023-01-23T01:23:44;25.53;;;13.30;;
20095;SDS011;10207;50.942;6.900;2023-01-23T01:26:11;29.47;;;15.07;;
20095;SDS011;10207;50.942;6.900;2023-01-23T01:28:38;28.73;;;16.20;;
20095;SDS011;10207;50.942;6.900;2023-01-23T01:31:05;26.93;;;14.97;;
20095;SDS011;10207;50.942;6.900;2023-01-23T01:33:32;28.27;;;14.63;;
20095;SDS011;10207;50.942;6.900;2023-01-23T01:36:02;35.87;;;16.07;;
20095;SDS011;10207;50.942;6.900;2023-01-23T01:38:28;28.47;;;14.97;;
20095;SDS011;10207;50.942;6.900;2023-01-23T01:40:54;30.07;;;15.70;;
20095;SDS011;10207;50.942;6.900;2023-01-23T01:43:23;30.87;;;16.33;;
20095;SDS011;10207;50.942;6.900;2023-01-23T01:48:29;29.67;;;15.53;;
20095;SDS011;10207;50.942;6.900;2023-01-23T01:50:56;30.40;;;16.53;;
20095;SDS011;10207;50.942;6.900;2023-01-23T01:53:24;30.60;;;16.13;;
20095;SDS011;10207;50.942;6.900;2023-01-23T01:55:50;27.33;;;15.40;;
20095;SDS011;10207;50.942;6.900;2023-01-23T01:58:16;30.67;;;15.53;;
20095;SDS011;10207;50.942;6.900;2023-01-23T02:00:43;28.90;;;15.57;;
20095;SDS011;10207;50.942;6.900;2023-01-23T02:03:09;27.23;;;13.57;;
20095;SDS011;10207;50.942;6.900;2023-01-23T02:05:37;28.73;;;16.13;;
20095;SDS011;10207;50.942;6.900;2023-01-23T02:10:39;25.20;;;14.73;;
20095;SDS011;10207;50.942;6.900;2023-01-23T02:13:25;25.43;;;14.10;;
20095;SDS011;10207;50.942;6.900;2023-01-23T02:15:55;28.57;;;14.33;;
20095;SDS011;10207;50.942;6.900;2023-01-23T02:18:21;29.73;;;15.33;;
20095;SDS011;10207;50.942;6.900;2023-01-23T02:20:47;25.63;;;14.20;;
20095;SDS011;10207;50.942;6.900;2023-01-23T02:26:00;25.87;;;14.70;;
20095;SDS011;10207;50.942;6.900;2023-01-23T02:28:41;26.03;;;14.67;;
20095;SDS011;10207;50.942;6.900;2023-01-23T02:31:09;28.87;;;15.03;;
20095;SDS011;10207;50.942;6.900;2023-01-23T02:36:03;26.77;;;15.20;;
20095;SDS011;10207;50.942;6.900;2023-01-23T02:38:33;24.83;;;14.27;;
20095;SDS011;10207;50.942;6.900;2023-01-23T02:41:01;25.27;;;14.40;;
20095;SDS011;10207;50.942;6.900;2023-01-23T02:43:28;27.37;;;13.67;;
20095;SDS011;10207;50.942;6.900;2023-01-23T02:46:01;25.40;;;14.33;;
20095;SDS011;10207;50.942;6.900;2023-01-23T02:48:27;25.10;;;13.47;;
20095;SDS011;10207;50.942;6.900;2023-01-23T02:50:53;25.63;;;14.27;;
20095;SDS011;10207;50.942;6.900;2023-01-23T02:53:19;27.13;;;14.60;;
20095;SDS011;10207;50.942;6.900;2023-01-23T02:55:45;22.47;;;12.63;;
20095;SDS011;10207;50.942;6.900;2023-01-23T02:58:12;26.17;;;12.43;;
20095;SDS011;10207;50.942;6.900;2023-01-23T03:00:56;19.83;;;11.10;;
20095;SDS011;10207;50.942;6.900;2023-01-23T03:03:22;23.07;;;13.57;;
20095;SDS011;10207;50.942;6.900;2023-01-23T03:05:48;24.13;;;11.20;;
20095;SDS011;10207;50.942;6.900;2023-01-23T03:08:15;26.00;;;13.43;;
20095;SDS011;10207;50.942;6.900;2023-01-23T03:10:41;25.73;;;13.97;;
20095;SDS011;10207;50.942;6.900;2023-01-23T03:13:07;24.87;;;14.03;;
20095;SDS011;10207;50.942;6.900;2023-01-23T03:15:36;26.07;;;14.93;;
20095;SDS011;10207;50.942;6.900;2023-01-23T03:18:09;35.37;;;16.33;;
20095;SDS011;10207;50.942;6.900;2023-01-23T03:20:38;24.37;;;12.73;;
20095;SDS011;10207;50.942;6.900;2023-01-23T03:23:04;27.97;;;14.93;;
20095;SDS011;10207;50.942;6.900;2023-01-23T03:25:30;25.67;;;14.13;;
20095;SDS011;10207;50.942;6.900;2023-01-23T03:27:56;24.87;;;13.77;;
20095;SDS011;10207;50.942;6.900;2023-01-23T03:30:22;30.60;;;15.70;;
20095;SDS011;10207;50.942;6.900;2023-01-23T03:32:51;30.33;;;15.27;;
20095;SDS011;10207;50.942;6.900;2023-01-23T03:35:17;26.87;;;14.97;;
20095;SDS011;10207;50.942;6.900;2023-01-23T03:37:45;28.87;;;16.00;;
20095;SDS011;10207;50.942;6.900;2023-01-23T03:40:16;29.43;;;16.57;;
20095;SDS011;10207;50.942;6.900;2023-01-23T03:43:01;30.13;;;16.37;;
20095;SDS011;10207;50.942;6.900;2023-01-23T03:45:27;31.93;;;16.43;;
20095;SDS011;10207;50.942;6.900;2023-01-23T03:47:54;29.63;;;16.17;;
20095;SDS011;10207;50.942;6.900;2023-01-23T03:50:20;32.30;;;17.10;;
20095;SDS011;10207;50.942;6.900;2023-01-23T03:52:45;32.97;;;16.57;;
20095;SDS011;10207;50.942;6.900;2023-01-23T03:55:11;35.17;;;17.60;;
20095;SDS011;10207;50.942;6.900;2023-01-23T03:57:39;28.70;;;15.97;;
20095;SDS011;10207;50.942;6.900;2023-01-23T04:00:17;28.93;;;15.77;;
20095;SDS011;10207;50.942;6.900;2023-01-23T04:02:58;32.60;;;16.50;;
20095;SDS011;10207;50.942;6.900;2023-01-23T04:05:24;32.30;;;16.97;;
20095;SDS011;10207;50.942;6.900;2023-01-23T04:07:50;33.40;;;17.40;;
20095;SDS011;10207;50.942;6.900;2023-01-23T04:10:16;33.57;;;17.10;;
20095;SDS011;10207;50.942;6.900;2023-01-23T04:12:47;26.83;;;14.47;;
20095;SDS011;10207;50.942;6.900;2023-01-23T04:15:12;32.20;;;16.13;;
20095;SDS011;10207;50.942;6.900;2023-01-23T04:17:38;29.07;;;15.97;;
20095;SDS011;10207;50.942;6.900;2023-01-23T04:20:04;28.93;;;16.03;;
20095;SDS011;10207;50.942;6.900;2023-01-23T04:22:31;27.30;;;15.40;;
20095;SDS011;10207;50.942;6.900;2023-01-23T04:24:57;31.87;;;16.27;;
20095;SDS011;10207;50.942;6.900;2023-01-23T04:27:23;29.60;;;15.67;;
20095;SDS011;10207;50.942;6.900;2023-01-23T04:29:50;30.30;;;15.20;;
20095;SDS011;10207;50.942;6.900;2023-01-23T04:32:17;32.80;;;16.43;;
20095;SDS011;10207;50.942;6.900;2023-01-23T04:34:45;25.30;;;11.63;;
20095;SDS011;10207;50.942;6.900;2023-01-23T04:37:11;30.67;;;16.23;;
20095;SDS011;10207;50.942;6.900;2023-01-23T04:39:38;31.27;;;14.80;;
20095;SDS011;10207;50.942;6.900;2023-01-23T04:42:04;34.20;;;17.10;;
20095;SDS011;10207;50.942;6.900;2023-01-23T04:44:48;31.60;;;16.43;;
20095;SDS011;10207;50.942;6.900;2023-01-23T04:47:33;29.67;;;14.13;;
20095;SDS011;10207;50.942;6.900;2023-01-23T04:50:00;35.97;;;15.90;;
20095;SDS011;10207;50.942;6.900;2023-01-23T04:52:29;29.50;;;14.50;;
20095;SDS011;10207;50.942;6.900;2023-01-23T04:54:56;25.50;;;12.93;;
20095;SDS011;10207;50.942;6.900;2023-01-23T04:57:22;25.70;;;14.10;;
20095;SDS011;10207;50.942;6.900;2023-01-23T04:59:54;32.03;;;16.33;;
20095;SDS011;10207;50.942;6.900;2023-01-23T05:02:21;27.47;;;14.50;;
20095;SDS011;10207;50.942;6.900;2023-01-23T05:04:47;29.93;;;15.73;;
20095;SDS011;10207;50.942;6.900;2023-01-23T05:07:13;34.33;;;18.17;;
20095;SDS011;10207;50.942;6.900;2023-01-23T05:09:45;31.50;;;16.43;;
20095;SDS011;10207;50.942;6.900;2023-01-23T05:12:14;33.10;;;16.47;;
20095;SDS011;10207;50.942;6.900;2023-01-23T05:14:40;34.40;;;17.37;;
20095;SDS011;10207;50.942;6.900;2023-01-23T05:17:07;32.30;;;17.20;;
20095;SDS011;10207;50.942;6.900;2023-01-23T05:19:53;34.70;;;17.03;;
20095;SDS011;10207;50.942;6.900;2023-01-23T05:22:19;36.50;;;17.30;;
20095;SDS011;10207;50.942;6.900;2023-01-23T05:24:46;32.67;;;17.27;;
20095;SDS011;10207;50.942;6.900;2023-01-23T05:27:12;42.53;;;20.33;;
20095;SDS011;10207;50.942;6.900;2023-01-23T05:29:40;36.50;;;17.27;;
20095;SDS011;10207;50.942;6.900;2023-01-23T05:32:23;31.23;;;16.17;;
20095;SDS011;10207;50.942;6.900;2023-01-23T05:34:55;36.20;;;18.13;;
20095;SDS011;10207;50.942;6.900;2023-01-23T05:37:24;34.50;;;18.50;;
20095;SDS011;10207;50.942;6.900;2023-01-23T05:39:52;32.67;;;16.30;;
20095;SDS011;10207;50.942;6.900;2023-01-23T05:42:19;35.13;;;17.83;;
20095;SDS011;10207;50.942;6.900;2023-01-23T05:45:14;31.00;;;15.90;;
20095;SDS011;10207;50.942;6.900;2023-01-23T05:47:41;29.27;;;15.27;;
20095;SDS011;10207;50.942;6.900;2023-01-23T05:50:08;25.50;;;14.70;;
20095;SDS011;10207;50.942;6.900;2023-01-23T05:52:36;26.80;;;13.63;;
20095;SDS011;10207;50.942;6.900;2023-01-23T05:55:02;25.90;;;14.33;;
20095;SDS011;10207;50.942;6.900;2023-01-23T05:57:28;24.83;;;14.10;;
20095;SDS011;10207;50.942;6.900;2023-01-23T06:00:13;26.40;;;13.90;;
20095;SDS011;10207;50.942;6.900;2023-01-23T06:02:50;25.00;;;14.63;;
20095;SDS011;10207;50.942;6.900;2023-01-23T06:05:33;23.70;;;13.37;;
20095;SDS011;10207;50.942;6.900;2023-01-23T06:08:07;26.27;;;15.60;;
20095;SDS011;10207;50.942;6.900;2023-01-23T06:10:35;27.43;;;15.23;;
20095;SDS011;10207;50.942;6.900;2023-01-23T06:13:01;29.63;;;16.07;;
20095;SDS011;10207;50.942;6.900;2023-01-23T06:15:27;29.13;;;14.27;;
20095;SDS011;10207;50.942;6.900;2023-01-23T06:17:55;26.43;;;14.40;;
20095;SDS011;10207;50.942;6.900;2023-01-23T06:20:21;27.33;;;15.07;;
20095;SDS011;10207;50.942;6.900;2023-01-23T06:22:48;24.93;;;13.70;;
20095;SDS011;10207;50.942;6.900;2023-01-23T06:25:14;28.60;;;15.83;;
20095;SDS011;10207;50.942;6.900;2023-01-23T06:27:40;25.43;;;13.67;;
20095;SDS011;10207;50.942;6.900;2023-01-23T06:30:08;26.33;;;14.73;;
20095;SDS011;10207;50.942;6.900;2023-01-23T06:32:42;24.20;;;13.07;;
20095;SDS011;10207;50.942;6.900;2023-01-23T06:35:09;26.47;;;13.57;;
20095;SDS011;10207;50.942;6.900;2023-01-23T06:37:39;23.83;;;13.57;;
20095;SDS011;10207;50.942;6.900;2023-01-23T06:40:05;27.10;;;13.80;;
20095;SDS011;10207;50.942;6.900;2023-01-23T06:42:31;30.77;;;15.97;;
20095;SDS011;10207;50.942;6.900;2023-01-23T06:44:58;26.13;;;14.63;;
20095;SDS011;10207;50.942;6.900;2023-01-23T06:47:25;27.33;;;14.53;;
20095;SDS011;10207;50.942;6.900;2023-01-23T06:49:57;26.93;;;15.60;;
20095;SDS011;10207;50.942;6.900;2023-01-23T06:52:25;26.23;;;14.63;;
20095;SDS011;10207;50.942;6.900;2023-01-23T06:54:51;26.57;;;15.63;;
20095;SDS011;10207;50.942;6.900;2023-01-23T06:57:17;27.53;;;15.67;;
20095;SDS011;10207;50.942;6.900;2023-01-23T06:59:45;25.97;;;14.47;;
20095;SDS011;10207;50.942;6.900;2023-01-23T07:02:13;29.17;;;15.03;;
20095;SDS011;10207;50.942;6.900;2023-01-23T07:04:48;26.23;;;15.33;;
20095;SDS011;10207;50.942;6.900;2023-01-23T07:07:14;25.13;;;13.10;;
20095;SDS011;10207;50.942;6.900;2023-01-23T07:09:41;26.50;;;14.80;;
20095;SDS011;10207;50.942;6.900;2023-01-23T07:12:15;26.73;;;14.47;;
20095;SDS011;10207;50.942;6.900;2023-01-23T07:14:41;21.73;;;12.00;;
20095;SDS011;10207;50.942;6.900;2023-01-23T07:17:09;24.47;;;13.53;;
20095;SDS011;10207;50.942;6.900;2023-01-23T07:19:35;23.90;;;13.37;;
20095;SDS011;10207;50.942;6.900;2023-01-23T07:22:04;24.10;;;14.10;;
20095;SDS011;10207;50.942;6.900;2023-01-23T07:24:30;22.93;;;12.80;;
20095;SDS011;10207;50.942;6.900;2023-01-23T07:26:57;18.80;;;11.77;;
20095;SDS011;10207;50.942;6.900;2023-01-23T07:29:23;22.00;;;11.73;;
20095;SDS011;10207;50.942;6.900;2023-01-23T07:31:49;17.63;;;10.07;;
20095;SDS011;10207;50.942;6.900;2023-01-23T07:34:15;19.67;;;10.33;;
20095;SDS011;10207;50.942;6.900;2023-01-23T07:36:41;19.83;;;11.03;;
20095;SDS011;10207;50.942;6.900;2023-01-23T07:39:07;16.73;;;10.10;;
20095;SDS011;10207;50.942;6.900;2023-01-23T07:41:33;21.97;;;11.20;;
20095;SDS011;10207;50.942;6.900;2023-01-23T07:44:02;21.70;;;11.20;;
20095;SDS011;10207;50.942;6.900;2023-01-23T07:46:28;15.97;;;9.87;;
20095;SDS011;10207;50.942;6.900;2023-01-23T07:48:55;16.67;;;10.03;;
20095;SDS011;10207;50.942;6.900;2023-01-23T07:51:20;15.50;;;9.67;;
20095;SDS011;10207;50.942;6.900;2023-01-23T07:53:46;16.80;;;10.20;;
20095;SDS011;10207;50.942;6.900;2023-01-23T07:56:12;19.10;;;10.03;;
20095;SDS011;10207;50.942;6.900;2023-01-23T07:58:38;19.50;;;11.03;;
20095;SDS011;10207;50.942;6.900;2023-01-23T08:01:10;18.20;;;10.63;;
20095;SDS011;10207;50.942;6.900;2023-01-23T08:03:36;17.83;;;9.93;;
20095;SDS011;10207;50.942;6.900;2023-01-23T08:06:02;17.33;;;9.80;;
20095;SDS011;10207;50.942;6.900;2023-01-23T08:08:28;17.93;;;9.70;;
20095;SDS011;10207;50.942;6.900;2023-01-23T08:10:55;17.57;;;10.47;;
20095;SDS011;10207;50.942;6.900;2023-01-23T08:13:21;15.20;;;8.23;;
20095;SDS011;10207;50.942;6.900;2023-01-23T08:15:47;19.47;;;11.13;;
20095;SDS011;10207;50.942;6.900;2023-01-23T08:18:13;17.30;;;10.67;;
20095;SDS011;10207;50.942;6.900;2023-01-23T08:20:39;19.33;;;10.47;;
20095;SDS011;10207;50.942;6.900;2023-01-23T08:23:05;20.93;;;12.00;;
20095;SDS011;10207;50.942;6.900;2023-01-23T08:25:31;19.93;;;11.70;;
20095;SDS011;10207;50.942;6.900;2023-01-23T08:27:57;20.00;;;11.03;;
20095;SDS011;10207;50.942;6.900;2023-01-23T08:30:22;18.23;;;11.20;;
20095;SDS011;10207;50.942;6.900;2023-01-23T08:32:48;16.50;;;10.20;;
20095;SDS011;10207;50.942;6.900;2023-01-23T08:35:14;17.87;;;11.47;;
20095;SDS011;10207;50.942;6.900;2023-01-23T08:37:40;16.80;;;10.67;;
20095;SDS011;10207;50.942;6.900;2023-01-23T08:40:07;18.50;;;10.77;;
20095;SDS011;10207;50.942;6.900;2023-01-23T08:42:33;21.17;;;12.23;;
20095;SDS011;10207;50.942;6.900;2023-01-23T08:44:59;21.67;;;11.33;;
20095;SDS011;10207;50.942;6.900;2023-01-23T08:47:25;23.10;;;11.67;;
20095;SDS011;10207;50.942;6.900;2023-01-23T08:49:51;21.03;;;11.70;;
20095;SDS011;10207;50.942;6.900;2023-01-23T08:52:18;20.73;;;11.93;;
20095;SDS011;10207;50.942;6.900;2023-01-23T08:54:44;17.57;;;10.60;;
20095;SDS011;10207;50.942;6.900;2023-01-23T08:57:10;18.60;;;11.10;;
20095;SDS011;10207;50.942;6.900;2023-01-23T08:59:35;20.43;;;12.10;;
20095;SDS011;10207;50.942;6.900;2023-01-23T09:02:01;18.60;;;11.27;;
20095;SDS011;10207;50.942;6.900;2023-01-23T09:04:27;20.60;;;11.50;;
20095;SDS011;10207;50.942;6.900;2023-01-23T09:06:53;22.57;;;12.13;;
20095;SDS011;10207;50.942;6.900;2023-01-23T09:09:19;18.40;;;10.77;;
20095;SDS011;10207;50.942;6.900;2023-01-23T09:11:45;20.87;;;11.93;;
20095;SDS011;10207;50.942;6.900;2023-01-23T09:14:11;23.03;;;12.67;;
20095;SDS011;10207;50.942;6.900;2023-01-23T09:16:37;21.57;;;12.37;;
20095;SDS011;10207;50.942;6.900;2023-01-23T09:19:05;22.63;;;12.70;;
20095;SDS011;10207;50.942;6.900;2023-01-23T09:21:32;23.90;;;12.53;;
20095;SDS011;10207;50.942;6.900;2023-01-23T09:23:58;20.37;;;11.97;;
20095;SDS011;10207;50.942;6.900;2023-01-23T09:26:24;21.30;;;11.53;;
20095;SDS011;10207;50.942;6.900;2023-01-23T09:28:50;19.60;;;12.07;;
20095;SDS011;10207;50.942;6.900;2023-01-23T09:31:16;22.17;;;12.00;;
20095;SDS011;10207;50.942;6.900;2023-01-23T09:33:42;21.40;;;12.43;;
20095;SDS011;10207;50.942;6.900;2023-01-23T09:36:08;20.53;;;11.77;;
20095;SDS011;10207;50.942;6.900;2023-01-23T09:38:35;21.90;;;12.90;;
20095;SDS011;10207;50.942;6.900;2023-01-23T09:41:13;20.53;;;11.67;;
20095;SDS011;10207;50.942;6.900;2023-01-23T09:43:49;20.80;;;11.03;;
20095;SDS011;10207;50.942;6.900;2023-01-23T09:46:21;21.70;;;12.60;;
20095;SDS011;10207;50.942;6.900;2023-01-23T09:48:55;21.90;;;12.40;;
20095;SDS011;10207;50.942;6.900;2023-01-23T09:51:28;23.87;;;12.77;;
20095;SDS011;10207;50.942;6.900;2023-01-23T09:53:57;24.90;;;12.10;;
20095;SDS011;10207;50.942;6.900;2023-01-23T09:56:28;20.93;;;13.10;;
20095;SDS011;10207;50.942;6.900;2023-01-23T09:58:59;21.17;;;12.27;;
20095;SDS011;10207;50.942;6.900;2023-01-23T10:01:27;21.83;;;11.93;;
20095;SDS011;10207;50.942;6.900;2023-01-23T10:03:53;22.93;;;11.90;;
20095;SDS011;10207;50.942;6.900;2023-01-23T10:16:55;19.97;;;11.70;;
20095;SDS011;10207;50.942;6.900;2023-01-23T10:22:09;20.00;;;11.17;;
20095;SDS011;10207;50.942;6.900;2023-01-23T10:24:42;20.20;;;11.07;;
20095;SDS011;10207;50.942;6.900;2023-01-23T10:27:15;23.73;;;10.97;;
20095;SDS011;10207;50.942;6.900;2023-01-23T10:30:06;18.10;;;10.37;;
20095;SDS011;10207;50.942;6.900;2023-01-23T10:32:31;19.97;;;11.67;;
20095;SDS011;10207;50.942;6.900;2023-01-23T10:34:58;18.00;;;10.50;;
20095;SDS011;10207;50.942;6.900;2023-01-23T10:40:04;21.77;;;11.70;;
20095;SDS011;10207;50.942;6.900;2023-01-23T10:42:32;16.90;;;9.97;;
20095;SDS011;10207;50.942;6.900;2023-01-23T10:44:58;19.03;;;10.70;;
20095;SDS011;10207;50.942;6.900;2023-01-23T10:47:34;19.10;;;10.70;;
20095;SDS011;10207;50.942;6.900;2023-01-23T10:50:01;19.50;;;10.83;;
20095;SDS011;10207;50.942;6.900;2023-01-23T10:52:31;18.67;;;11.13;;
20095;SDS011;10207;50.942;6.900;2023-01-23T10:54:58;16.40;;;9.73;;
20095;SDS011;10207;50.942;6.900;2023-01-23T10:57:26;17.40;;;9.97;;
20095;SDS011;10207;50.942;6.900;2023-01-23T10:59:55;15.47;;;9.07;;
20095;SDS011;10207;50.942;6.900;2023-01-23T11:02:26;18.03;;;10.20;;
20095;SDS011;10207;50.942;6.900;2023-01-23T11:04:52;20.23;;;10.60;;
20095;SDS011;10207;50.942;6.900;2023-01-23T11:07:25;19.13;;;10.90;;
20095;SDS011;10207;50.942;6.900;2023-01-23T11:13:03;16.67;;;9.63;;
20095;SDS011;10207;50.942;6.900;2023-01-23T11:17:46;18.03;;;10.37;;
20095;SDS011;10207;50.942;6.900;2023-01-23T11:25:26;17.00;;;9.97;;
20095;SDS011;10207;50.942;6.900;2023-01-23T11:28:01;17.03;;;9.30;;
20095;SDS011;10207;50.942;6.900;2023-01-23T11:30:34;13.90;;;8.80;;
20095;SDS011;10207;50.942;6.900;2023-01-23T11:33:07;14.67;;;8.33;;
20095;SDS011;10207;50.942;6.900;2023-01-23T11:38:03;16.40;;;9.27;;
20095;SDS011;10207;50.942;6.900;2023-01-23T11:40:29;13.10;;;8.43;;
20095;SDS011;10207;50.942;6.900;2023-01-23T11:42:55;12.83;;;8.60;;
20095;SDS011;10207;50.942;6.900;2023-01-23T11:45:31;15.73;;;8.80;;
20095;SDS011;10207;50.942;6.900;2023-01-23T11:50:39;11.80;;;6.20;;
20095;SDS011;10207;50.942;6.900;2023-01-23T11:55:54;10.23;;;6.40;;
20095;SDS011;10207;50.942;6.900;2023-01-23T12:04:04;13.07;;;7.03;;
20095;SDS011;10207;50.942;6.900;2023-01-23T12:09:18;18.40;;;8.57;;
20095;SDS011;10207;50.942;6.900;2023-01-23T12:14:34;14.17;;;8.90;;
20095;SDS011;10207;50.942;6.900;2023-01-23T12:17:12;10.17;;;6.33;;
20095;SDS011;10207;50.942;6.900;2023-01-23T12:22:17;12.67;;;7.77;;
20095;SDS011;10207;50.942;6.900;2023-01-23T12:24:52;12.00;;;7.27;;
20095;SDS011;10207;50.942;6.900;2023-01-23T12:32:34;12.53;;;6.73;;
20095;SDS011;10207;50.942;6.900;2023-01-23T12:35:49;8.97;;;5.83;;
20095;SDS011;10207;50.942;6.900;2023-01-23T12:40:21;11.17;;;6.30;;
20095;SDS011;10207;50.942;6.900;2023-01-23T12:42:51;8.63;;;5.80;;
20095;SDS011;10207;50.942;6.900;2023-01-23T12:45:23;12.73;;;6.87;;
20095;SDS011;10207;50.942;6.900;2023-01-23T12:48:11;10.60;;;5.37;;
20095;SDS011;10207;50.942;6.900;2023-01-23T12:50:49;11.27;;;5.83;;
20095;SDS011;10207;50.942;6.900;2023-01-23T12:53:16;12.87;;;5.63;;
20095;SDS011;10207;50.942;6.900;2023-01-23T12:55:51;4.83;;;3.37;;
20095;SDS011;10207;50.942;6.900;2023-01-23T12:58:18;7.97;;;4.53;;
20095;SDS011;10207;50.942;6.900;2023-01-23T13:00:57;8.63;;;4.60;;
20095;SDS011;10207;50.942;6.900;2023-01-23T13:06:12;10.10;;;5.60;;
20095;SDS011;10207;50.942;6.900;2023-01-23T13:08:56;8.53;;;5.00;;
20095;SDS011;10207;50.942;6.900;2023-01-23T13:16:47;9.27;;;5.97;;
20095;SDS011;10207;50.942;6.900;2023-01-23T13:19:19;12.77;;;6.33;;
20095;SDS011;10207;50.942;6.900;2023-01-23T13:27:33;10.83;;;4.93;;
20095;SDS011;10207;50.942;6.900;2023-01-23T13:29:59;12.43;;;4.33;;
20095;SDS011;10207;50.942;6.900;2023-01-23T13:32:28;6.73;;;3.73;;
20095;SDS011;10207;50.942;6.900;2023-01-23T13:34:54;7.63;;;4.57;;
20095;SDS011;10207;50.942;6.900;2023-01-23T13:40:08;6.97;;;4.03;;
20095;SDS011;10207;50.942;6.900;2023-01-23T13:42:38;6.47;;;4.00;;
20095;SDS011;10207;50.942;6.900;2023-01-23T13:50:46;6.03;;;3.67;;
20095;SDS011;10207;50.942;6.900;2023-01-23T13:53:18;5.63;;;3.70;;
20095;SDS011;10207;50.942;6.900;2023-01-23T13:56:05;6.07;;;3.83;;
20095;SDS011;10207;50.942;6.900;2023-01-23T13:58:50;7.03;;;4.70;;
20095;SDS011;10207;50.942;6.900;2023-01-23T14:01:17;8.47;;;3.77;;
20095;SDS011;10207;50.942;6.900;2023-01-23T14:04:12;7.30;;;4.43;;
20095;SDS011;10207;50.942;6.900;2023-01-23T14:07:00;6.83;;;4.27;;
20095;SDS011;10207;50.942;6.900;2023-01-23T14:09:27;6.37;;;3.90;;
20095;SDS011;10207;50.942;6.900;2023-01-23T14:11:57;11.37;;;5.13;;
20095;SDS011;10207;50.942;6.900;2023-01-23T14:14:23;6.40;;;3.50;;
20095;SDS011;10207;50.942;6.900;2023-01-23T14:17:08;6.60;;;3.53;;
20095;SDS011;10207;50.942;6.900;2023-01-23T14:19:34;4.63;;;3.20;;
20095;SDS011;10207;50.942;6.900;2023-01-23T14:22:04;7.27;;;3.93;;
20095;SDS011;10207;50.942;6.900;2023-01-23T14:24:41;5.13;;;3.67;;
20095;SDS011;10207;50.942;6.900;2023-01-23T14:27:14;5.77;;;4.17;;
20095;SDS011;10207;50.942;6.900;2023-01-23T14:29:54;5.37;;;3.60;;
20095;SDS011;10207;50.942;6.900;2023-01-23T14:32:21;7.53;;;4.23;;
20095;SDS011;10207;50.942;6.900;2023-01-23T14:34:48;6.13;;;4.13;;
20095;SDS011;10207;50.942;6.900;2023-01-23T14:37:14;6.07;;;3.77;;
20095;SDS011;10207;50.942;6.900;2023-01-23T14:39:42;7.50;;;4.00;;
20095;SDS011;10207;50.942;6.900;2023-01-23T14:42:15;5.93;;;3.63;;
20095;SDS011;10207;50.942;6.900;2023-01-23T14:44:47;6.73;;;4.07;;
20095;SDS011;10207;50.942;6.900;2023-01-23T14:47:14;6.17;;;4.03;;
20095;SDS011;10207;50.942;6.900;2023-01-23T14:49:41;6.40;;;3.80;;
20095;SDS011;10207;50.942;6.900;2023-01-23T14:52:17;7.30;;;4.50;;
20095;SDS011;10207;50.942;6.900;2023-01-23T14:54:45;11.60;;;4.50;;
20095;SDS011;10207;50.942;6.900;2023-01-23T14:57:11;11.80;;;5.73;;
20095;SDS011;10207;50.942;6.900;2023-01-23T14:59:38;10.97;;;5.90;;
20095;SDS011;10207;50.942;6.900;2023-01-23T15:10:27;14.07;;;7.73;;
20095;SDS011;10207;50.942;6.900;2023-01-23T15:12:57;11.50;;;7.20;;
20095;SDS011;10207;50.942;6.900;2023-01-23T15:15:24;15.37;;;7.83;;
20095;SDS011;10207;50.942;6.900;2023-01-23T15:17:54;13.80;;;8.33;;
20095;SDS011;10207;50.942;6.900;2023-01-23T15:20:25;14.60;;;8.07;;
20095;SDS011;10207;50.942;6.900;2023-01-23T15:22:52;17.07;;;9.10;;
20095;SDS011;10207;50.942;6.900;2023-01-23T15:27:53;17.50;;;10.03;;
20095;SDS011;10207;50.942;6.900;2023-01-23T15:32:57;18.43;;;10.70;;
20095;SDS011;10207;50.942;6.900;2023-01-23T15:35:24;15.63;;;9.37;;
20095;SDS011;10207;50.942;6.900;2023-01-23T15:37:50;14.60;;;9.13;;
20095;SDS011;10207;50.942;6.900;2023-01-23T15:40:24;15.57;;;9.87;;
20095;SDS011;10207;50.942;6.900;2023-01-23T15:45:27;15.40;;;9.00;;
20095;SDS011;10207;50.942;6.900;2023-01-23T15:47:53;12.97;;;8.13;;
20095;SDS011;10207;50.942;6.900;2023-01-23T15:50:19;16.53;;;9.47;;
20095;SDS011;10207;50.942;6.900;2023-01-23T15:52:46;14.27;;;8.90;;
20095;SDS011;10207;50.942;6.900;2023-01-23T15:55:13;14.83;;;9.23;;
20095;SDS011;10207;50.942;6.900;2023-01-23T15:57:39;15.57;;;9.80;;
20095;SDS011;10207;50.942;6.900;2023-01-23T16:00:23;16.07;;;9.80;;
20095;SDS011;10207;50.942;6.900;2023-01-23T16:02:49;17.63;;;10.10;;
20095;SDS011;10207;50.942;6.900;2023-01-23T16:05:19;22.97;;;11.47;;
20095;SDS011;10207;50.942;6.900;2023-01-23T16:07:45;16.73;;;11.47;;
20095;SDS011;10207;50.942;6.900;2023-01-23T16:12:40;21.33;;;10.60;;
20095;SDS011;10207;50.942;6.900;2023-01-23T16:15:12;20.40;;;11.57;;
20095;SDS011;10207;50.942;6.900;2023-01-23T16:17:38;21.67;;;11.33;;
20095;SDS011;10207;50.942;6.900;2023-01-23T16:20:04;39.83;;;16.33;;
20095;SDS011;10207;50.942;6.900;2023-01-23T16:22:30;20.73;;;12.60;;